<?xml version="1.0" encoding="utf-8"?>
<gpx xmlns:xsi="http://www.w3.org/2001/XMLSchema-instance" xmlns:xsd="http://www.w3.org/2001/XMLSchema" version="1.1" creator="Shapelink.com" xmlns="http://www.topografix.com/GPX/1/1" xmlns:gpxtpx="http://www.garmin.com/xmlschemas/TrackPointExtension/v1">
  <metadata>
    <name>Övrigt 2.15 km, 2020-02-08</name>
    <desc></desc>
    <author><name>Marian Moron</name></author> 
    <time>2020-02-08T20:09:11Z</time>
  </metadata>
  <trk>
    <name>Övrigt 2.15 km, 2020-02-08</name>
    <trkseg>
      <trkpt lat="51.229975322436" lon="4.458581803887">
        <ele>16.8</ele>
        <time>2020-02-08T20:09:11Z</time>
      </trkpt>
      <trkpt lat="51.230027374035" lon="4.458759416348">
        <ele>16.2</ele>
        <time>2020-02-08T20:09:21Z</time>
      </trkpt>
      <trkpt lat="51.230018740678" lon="4.458871733808">
        <ele>15.8</ele>
        <time>2020-02-08T20:09:26Z</time>
      </trkpt>
      <trkpt lat="51.229932910022" lon="4.458903752666">
        <ele>14.8</ele>
        <time>2020-02-08T20:09:38Z</time>
      </trkpt>
      <trkpt lat="51.230011699882" lon="4.458960330491">
        <ele>13.8</ele>
        <time>2020-02-08T20:09:44Z</time>
      </trkpt>
      <trkpt lat="51.230019075954" lon="4.459078347643">
        <ele>13.2</ele>
        <time>2020-02-08T20:09:48Z</time>
      </trkpt>
      <trkpt lat="51.23004958607" lon="4.459100811135">
        <ele>12.8</ele>
        <time>2020-02-08T20:09:51Z</time>
      </trkpt>
      <trkpt lat="51.23034714352" lon="4.459077844729">
        <ele>4.6</ele>
        <time>2020-02-08T20:10:27Z</time>
      </trkpt>
      <trkpt lat="51.230366338071" lon="4.459186222696">
        <ele>2.8</ele>
        <time>2020-02-08T20:10:48Z</time>
      </trkpt>
      <trkpt lat="51.230453845107" lon="4.45947003383">
        <ele>0.8</ele>
        <time>2020-02-08T20:11:02Z</time>
      </trkpt>
      <trkpt lat="51.230462562283" lon="4.459504567258">
        <ele>0.2</ele>
        <time>2020-02-08T20:11:08Z</time>
      </trkpt>
      <trkpt lat="51.23047790116" lon="4.459580591091">
        <ele>0</ele>
        <time>2020-02-08T20:11:11Z</time>
      </trkpt>
      <trkpt lat="51.230482008291" lon="4.459585871688">
        <ele>0</ele>
        <time>2020-02-08T20:11:15Z</time>
      </trkpt>
      <trkpt lat="51.230541687419" lon="4.45963431907">
        <ele>0</ele>
        <time>2020-02-08T20:11:19Z</time>
      </trkpt>
      <trkpt lat="51.230616370148" lon="4.459727861074">
        <ele>0.2</ele>
        <time>2020-02-08T20:11:24Z</time>
      </trkpt>
      <trkpt lat="51.23106631054" lon="4.459635408717">
        <ele>1.4</ele>
        <time>2020-02-08T20:11:38Z</time>
      </trkpt>
      <trkpt lat="51.231108722954" lon="4.459627445912">
        <ele>2.2</ele>
        <time>2020-02-08T20:11:39Z</time>
      </trkpt>
      <trkpt lat="51.231254819471" lon="4.459623338781">
        <ele>2.8</ele>
        <time>2020-02-08T20:11:42Z</time>
      </trkpt>
      <trkpt lat="51.231697886705" lon="4.459609927741">
        <ele>0</ele>
        <time>2020-02-08T20:12:04Z</time>
      </trkpt>
      <trkpt lat="51.231859405918" lon="4.459904635345">
        <ele>2.8</ele>
        <time>2020-02-08T20:12:42Z</time>
      </trkpt>
      <trkpt lat="51.231897124468" lon="4.460110494809">
        <ele>3.2</ele>
        <time>2020-02-08T20:12:49Z</time>
      </trkpt>
      <trkpt lat="51.231912379526" lon="4.460180483674">
        <ele>2</ele>
        <time>2020-02-08T20:12:52Z</time>
      </trkpt>
      <trkpt lat="51.23186510561" lon="4.460289196917">
        <ele>0.8</ele>
        <time>2020-02-08T20:13:09Z</time>
      </trkpt>
      <trkpt lat="51.231900393409" lon="4.460635788482">
        <ele>0</ele>
        <time>2020-02-08T20:13:36Z</time>
      </trkpt>
      <trkpt lat="51.231958899071" lon="4.460915241028">
        <ele>0</ele>
        <time>2020-02-08T20:13:51Z</time>
      </trkpt>
      <trkpt lat="51.232154867893" lon="4.461527455004">
        <ele>0</ele>
        <time>2020-02-08T20:14:33Z</time>
      </trkpt>
      <trkpt lat="51.232184204543" lon="4.462247376395">
        <ele>25.4</ele>
        <time>2020-02-08T20:15:05Z</time>
      </trkpt>
      <trkpt lat="51.232219408523" lon="4.462560607998">
        <ele>30.6</ele>
        <time>2020-02-08T20:15:42Z</time>
      </trkpt>
      <trkpt lat="51.232353267466" lon="4.463289917117">
        <ele>30.4</ele>
        <time>2020-02-08T20:16:09Z</time>
      </trkpt>
      <trkpt lat="51.232501375639" lon="4.464003384445">
        <ele>24.4</ele>
        <time>2020-02-08T20:16:28Z</time>
      </trkpt>
      <trkpt lat="51.232310352138" lon="4.464677037748">
        <ele>13.6</ele>
        <time>2020-02-08T20:16:47Z</time>
      </trkpt>
      <trkpt lat="51.232057134939" lon="4.465305680248">
        <ele>8</ele>
        <time>2020-02-08T20:17:07Z</time>
      </trkpt>
      <trkpt lat="51.231774916366" lon="4.465891239782">
        <ele>12.6</ele>
        <time>2020-02-08T20:17:25Z</time>
      </trkpt>
      <trkpt lat="51.231616414637" lon="4.466228443619">
        <ele>21.6</ele>
        <time>2020-02-08T20:17:40Z</time>
      </trkpt>
      <trkpt lat="51.231344505801" lon="4.466828336202">
        <ele>4.4</ele>
        <time>2020-02-08T20:18:18Z</time>
      </trkpt>
      <trkpt lat="51.231232942712" lon="4.467085073799">
        <ele>0</ele>
        <time>2020-02-08T20:18:46Z</time>
      </trkpt>
      <trkpt lat="51.231078464295" lon="4.467207030444">
        <ele>0</ele>
        <time>2020-02-08T20:19:09Z</time>
      </trkpt>
      <trkpt lat="51.230774285144" lon="4.467312223289">
        <ele>0.4</ele>
        <time>2020-02-08T20:19:38Z</time>
      </trkpt>
      <trkpt lat="51.230676216914" lon="4.467284563019">
        <ele>1.2</ele>
        <time>2020-02-08T20:19:47Z</time>
      </trkpt>
      <trkpt lat="51.230665571901" lon="4.467189679911">
        <ele>0</ele>
        <time>2020-02-08T20:19:53Z</time>
      </trkpt>
      <trkpt lat="51.230666242453" lon="4.467051713837">
        <ele>0</ele>
        <time>2020-02-08T20:20:03Z</time>
      </trkpt>
      <trkpt lat="51.230687867755" lon="4.466320225424">
        <ele>0</ele>
        <time>2020-02-08T20:20:38Z</time>
      </trkpt>
      <trkpt lat="51.230681497511" lon="4.465904567003">
        <ele>0</ele>
        <time>2020-02-08T20:21:01Z</time>
      </trkpt>
      <trkpt lat="51.230688957402" lon="4.46519151877">
        <ele>1.4</ele>
        <time>2020-02-08T20:21:37Z</time>
      </trkpt>
      <trkpt lat="51.230598684339" lon="4.464619789371">
        <ele>0</ele>
        <time>2020-02-08T20:22:05Z</time>
      </trkpt>
      <trkpt lat="51.230504136507" lon="4.464319465894">
        <ele>0</ele>
        <time>2020-02-08T20:22:23Z</time>
      </trkpt>
      <trkpt lat="51.230358375266" lon="4.463902047274">
        <ele>0</ele>
        <time>2020-02-08T20:22:46Z</time>
      </trkpt>
      <trkpt lat="51.229981105947" lon="4.464268168666">
        <ele>8.4</ele>
        <time>2020-02-08T20:23:28Z</time>
      </trkpt>
      <trkpt lat="51.229533177211" lon="4.464307312139">
        <ele>7</ele>
        <time>2020-02-08T20:24:01Z</time>
      </trkpt>
      <trkpt lat="51.229210390242" lon="4.464350059829">
        <ele>3.8</ele>
        <time>2020-02-08T20:24:29Z</time>
      </trkpt>
      <trkpt lat="51.229072927082" lon="4.46405158037">
        <ele>0</ele>
        <time>2020-02-08T20:24:54Z</time>
      </trkpt>
      <trkpt lat="51.229070161055" lon="4.463888300958">
        <ele>0.4</ele>
        <time>2020-02-08T20:25:03Z</time>
      </trkpt>
      <trkpt lat="51.229043087518" lon="4.463587558386">
        <ele>0</ele>
        <time>2020-02-08T20:25:18Z</time>
      </trkpt>
      <trkpt lat="51.228587279796" lon="4.463531148199">
        <ele>0</ele>
        <time>2020-02-08T20:25:56Z</time>
      </trkpt>
      <trkpt lat="51.228450571007" lon="4.463514468218">
        <ele>0</ele>
        <time>2020-02-08T20:26:07Z</time>
      </trkpt>
      <trkpt lat="51.228394328458" lon="4.463460824058">
        <ele>0</ele>
        <time>2020-02-08T20:26:12Z</time>
      </trkpt>
      <trkpt lat="51.228234988539" lon="4.46338857208">
        <ele>3.8</ele>
        <time>2020-02-08T20:26:26Z</time>
      </trkpt>
      <trkpt lat="51.228027704152" lon="4.463081459264">
        <ele>0</ele>
        <time>2020-02-08T20:26:46Z</time>
      </trkpt>
      <trkpt lat="51.227838524669" lon="4.462670410888">
        <ele>0</ele>
        <time>2020-02-08T20:27:12Z</time>
      </trkpt>
      <trkpt lat="51.227831567692" lon="4.46246907765">
        <ele>1</ele>
        <time>2020-02-08T20:27:22Z</time>
      </trkpt>
      <trkpt lat="51.227789993468" lon="4.461882763745">
        <ele>11.4</ele>
        <time>2020-02-08T20:28:35Z</time>
      </trkpt>
      <trkpt lat="51.227789155278" lon="4.461865664669">
        <ele>11</ele>
        <time>2020-02-08T20:28:36Z</time>
      </trkpt>
      <trkpt lat="51.227846990388" lon="4.461154628092">
        <ele>4</ele>
        <time>2020-02-08T20:29:16Z</time>
      </trkpt>
      <trkpt lat="51.227856713392" lon="4.460507461593">
        <ele>2.8</ele>
        <time>2020-02-08T20:29:54Z</time>
      </trkpt>
      <trkpt lat="51.227963917893" lon="4.460512323095">
        <ele>5.8</ele>
        <time>2020-02-08T20:30:09Z</time>
      </trkpt>
      <trkpt lat="51.228106913107" lon="4.460468066663">
        <ele>12.8</ele>
        <time>2020-02-08T20:30:22Z</time>
      </trkpt>
      <trkpt lat="51.228210178115" lon="4.460368238234">
        <ele>18</ele>
        <time>2020-02-08T20:30:42Z</time>
      </trkpt>
      <trkpt lat="51.228363650704" lon="4.459712689835">
        <ele>0</ele>
        <time>2020-02-08T20:31:10Z</time>
      </trkpt>
      <trkpt lat="51.228515446913" lon="4.45935017266">
        <ele>0</ele>
        <time>2020-02-08T20:31:38Z</time>
      </trkpt>
      <trkpt lat="51.228504215167" lon="4.459164597394">
        <ele>0</ele>
        <time>2020-02-08T20:31:50Z</time>
      </trkpt>
      <trkpt lat="51.228536066387" lon="4.458901908648">
        <ele>0</ele>
        <time>2020-02-08T20:32:13Z</time>
      </trkpt>
      <trkpt lat="51.228483092779" lon="4.458323892824">
        <ele>0</ele>
        <time>2020-02-08T20:32:43Z</time>
      </trkpt>
      <trkpt lat="51.228587698891" lon="4.458186932578">
        <ele>0</ele>
        <time>2020-02-08T20:33:02Z</time>
      </trkpt>
      <trkpt lat="51.228614856247" lon="4.458196152668">
        <ele>0</ele>
        <time>2020-02-08T20:33:06Z</time>
      </trkpt>
      <trkpt lat="51.229066808295" lon="4.458088445253">
        <ele>6.6</ele>
        <time>2020-02-08T20:33:46Z</time>
      </trkpt>
      <trkpt lat="51.229510965176" lon="4.457967578255">
        <ele>12.2</ele>
        <time>2020-02-08T20:34:26Z</time>
      </trkpt>
      <trkpt lat="51.229730906232" lon="4.457900355417">
        <ele>12.8</ele>
        <time>2020-02-08T20:34:45Z</time>
      </trkpt>
      <trkpt lat="51.229705509075" lon="4.457972775033">
        <ele>8.6</ele>
        <time>2020-02-08T20:35:00Z</time>
      </trkpt>
      <trkpt lat="51.229639878798" lon="4.457922902728">
        <ele>6.6</ele>
        <time>2020-02-08T20:35:30Z</time>
      </trkpt>
    </trkseg>
  </trk>
</gpx>